Orovada, Nevada
Current Conditions -  °F | °C
As of 3:56 PM on Saturday 22 Nov 2014 (Local Time) from KWMC Reporting Station
Overcast Overcast  
Wind Chill: 35°   Ceiling: 9500
Heat Index: 42°   Visibility: 10mi
Dew Point: 35°   Wind: 14mph
Humidity: 76%   Direction: 260°W
Pressure: 29.98"   Gusts: NA
Location:  41.57°N, 117.79°W
Report Text: KWMC 222356Z AUTO 26012KT 10SM OVC095 06/02 A2998 RMK AO2 PK WND 27026/2313 RAB08E26 SLP145 P0000 60016 T00560017 10144 20050 53026
Loading
Personal Weather Stations






























Interactive Weather Map New forecast layout! Learn more

10-Day Weather Forecast

Advertisements
Track Severe Weather on mobile